Time;durP1;ratioP1;P1;durP2;ratioP2;P2;SDS_P1;SDS_P2;PMS_P1;PMS_P2;Temp;Humidity;BMP_temperature;BMP_pressure;BME280_temperature;BME280_humidity;BME280_pressure;Samples;Min_cycle;Max_cycle;Signal;HPM_P1;HPM_P2
2022/09/19 00:00:07;;;;;;;;;;;;;;;;;;6241010;23;19918;-79
2022/09/19 00:02:33;;;;;;;;;;;;;;;;;;6213958;23;19911;-75
2022/09/19 00:04:59;;;;;;;;;;;;;;;;;;6241122;23;19966;-77
2022/09/19 00:07:25;;;;;;;;;;;;;;;;;;6241413;23;20274;-77
2022/09/19 00:09:50;;;;;;;;;;;;;;;;;;6241152;22;19908;-77
2022/09/19 00:12:16;;;;;;;;;;;;;;;;;;6240733;23;19911;-77
2022/09/19 00:14:42;;;;;;;;;;;;;;;;;;6241072;23;19924;-78
2022/09/19 00:17:07;;;;;;;;;;;;;;;;;;6240911;23;19939;-78
2022/09/19 00:19:33;;;;;;;;;;;;;;;;;;6241508;23;19911;-77
2022/09/19 00:21:58;;;;;;;;;;;;;;;;;;6241049;23;20244;-77
2022/09/19 00:27:09;;;;;;;;;;;;;;;;;;6240667;23;20260;-78
2022/09/19 00:29:34;;;;;;;;;;;;;;;;;;6241182;23;20245;-77
2022/09/19 00:32:00;;;;;;;;;;;;;;;;;;6240657;23;19965;-78
2022/09/19 00:34:25;;;;;;;;;;;;;;;;;;6240862;23;19918;-77
2022/09/19 00:36:51;;;;;;;;;;;;;;;;;;6240798;23;20249;-77
2022/09/19 00:39:17;;;;;;;;;;;;;;;;;;6241080;23;19950;-78
2022/09/19 00:41:43;;;;;;;;;;;;;;;;;;6213892;23;19912;-77
2022/09/19 00:44:08;;;;;;;;;;;;;;;;;;6240622;23;19927;-77
2022/09/19 00:46:34;;;;;;;;;;;;;;;;;;6240727;23;20295;-76
2022/09/19 00:49:00;;;;;;;;;;;;;;;;;;6241076;23;19934;-78
2022/09/19 00:51:28;;;;;;;;;;;;;;;;;;6238882;23;19915;-78
2022/09/19 00:53:53;;;;;;;;;;;;;;;;;;6240494;23;19912;-78
2022/09/19 00:56:19;;;;;;;;;;;;;;;;;;6240774;23;19962;-78
2022/09/19 00:58:45;;;;;;;;;;;;;;;;;;6240732;23;19935;-76
2022/09/19 01:01:11;;;;;;;;;;;;;;;;;;6240255;23;20352;-77
2022/09/19 01:03:37;;;;;;;;;;;;;;;;;;6240883;23;19918;-77
2022/09/19 01:06:03;;;;;;;;;;;;;;;;;;6213230;23;20296;-78
2022/09/19 01:08:28;;;;;;;;;;;;;;;;;;6240957;23;20352;-78
2022/09/19 01:10:54;;;;;;;;;;;;;;;;;;6240577;22;20010;-78
2022/09/19 01:13:20;;;;;;;;;;;;;;;;;;6240745;23;19920;-78
2022/09/19 01:15:47;;;;;;;;;;;;;;;;;;6216454;23;19912;-78
2022/09/19 01:18:13;;;;;;;;;;;;;;;;;;6243932;23;19955;-78
2022/09/19 01:20:39;;;;;;;;;;;;;;;;;;6222787;23;19922;-77
2022/09/19 01:23:05;;;;;;;;;;;;;;;;;;6222086;23;19911;-78
2022/09/19 01:25:31;;;;;;;;;;;;;;;;;;6220759;23;19919;-77
2022/09/19 01:27:56;;;;;;;;;;;;;;;;;;6250443;23;19942;-77
2022/09/19 01:30:24;;;;;;;;;;;;;;;;;;6198975;23;19911;-79
2022/09/19 01:32:51;;;;;;;;;;;;;;;;;;6242283;23;20351;-78
2022/09/19 01:35:17;;;;;;;;;;;;;;;;;;6240760;23;19912;-78
2022/09/19 01:37:43;;;;;;;;;;;;;;;;;;6241081;23;19919;-77
2022/09/19 01:40:10;;;;;;;;;;;;;;;;;;6238701;23;19915;-77
2022/09/19 01:42:43;;;;;;;;;;;;;;;;;;6238895;23;20194;-77
2022/09/19 01:45:08;;;;;;;;;;;;;;;;;;6238198;23;19920;-77
2022/09/19 01:47:36;;;;;;;;;;;;;;;;;;6238543;23;19991;-77
2022/09/19 01:50:02;;;;;;;;;;;;;;;;;;6239759;23;19922;-78
2022/09/19 01:52:29;;;;;;;;;;;;;;;;;;6239444;23;19911;-77
2022/09/19 01:54:55;;;;;;;;;;;;;;;;;;6238564;23;20287;-77
2022/09/19 01:57:20;;;;;;;;;;;;;;;;;;6238634;23;19945;-77
2022/09/19 01:59:49;;;;;;;;;;;;;;;;;;6214307;23;20288;-78
2022/09/19 02:02:15;;;;;;;;;;;;;;;;;;6238398;23;19912;-76
2022/09/19 02:04:43;;;;;;;;;;;;;;;;;;6238325;23;19923;-77
2022/09/19 02:07:08;;;;;;;;;;;;;;;;;;6240446;23;20423;-76
2022/09/19 02:09:36;;;;;;;;;;;;;;;;;;6238748;22;19947;-78
2022/09/19 02:12:01;;;;;;;;;;;;;;;;;;6214073;23;19919;-78
2022/09/19 02:14:30;;;;;;;;;;;;;;;;;;6239776;23;20069;-80
2022/09/19 02:17:02;;;;;;;;;;;;;;;;;;6238759;23;19911;-77
2022/09/19 02:19:32;;;;;;;;;;;;;;;;;;6213889;23;19911;-75
2022/09/19 02:21:58;;;;;;;;;;;;;;;;;;6213339;23;20344;-75
2022/09/19 02:24:23;;;;;;;;;;;;;;;;;;6239968;23;19949;-78
2022/09/19 02:26:51;;;;;;;;;;;;;;;;;;6212885;23;19919;-77
2022/09/19 02:29:20;;;;;;;;;;;;;;;;;;6239018;23;19918;-78
2022/09/19 02:31:46;;;;;;;;;;;;;;;;;;6240541;23;20041;-79
2022/09/19 02:34:12;;;;;;;;;;;;;;;;;;6238869;23;19978;-79
2022/09/19 02:36:38;;;;;;;;;;;;;;;;;;6238260;23;19911;-79
2022/09/19 02:39:04;;;;;;;;;;;;;;;;;;6238154;23;19938;-79
2022/09/19 02:41:52;;;;;;;;;;;;;;;;;;6238312;23;20317;-77
2022/09/19 02:44:20;;;;;;;;;;;;;;;;;;6238722;23;19923;-79
2022/09/19 02:46:47;;;;;;;;;;;;;;;;;;6238603;23;19961;-77
2022/09/19 02:49:12;;;;;;;;;;;;;;;;;;6213180;23;19946;-78
2022/09/19 02:51:40;;;;;;;;;;;;;;;;;;6237292;23;19957;-78
2022/09/19 02:54:08;;;;;;;;;;;;;;;;;;6213415;23;19954;-78
2022/09/19 02:56:34;;;;;;;;;;;;;;;;;;6212862;23;19907;-77
2022/09/19 02:59:00;;;;;;;;;;;;;;;;;;6212792;23;20366;-78
2022/09/19 03:01:37;;;;;;;;;;;;;;;;;;6238468;23;19994;-79
2022/09/19 03:04:12;;;;;;;;;;;;;;;;;;6214989;23;20411;-78
2022/09/19 03:06:39;;;;;;;;;;;;;;;;;;6240513;23;20261;-79
2022/09/19 03:09:04;;;;;;;;;;;;;;;;;;6214053;23;19922;-78
2022/09/19 03:11:30;;;;;;;;;;;;;;;;;;6240427;23;19939;-79
2022/09/19 03:13:59;;;;;;;;;;;;;;;;;;6243512;23;19951;-79
2022/09/19 03:16:26;;;;;;;;;;;;;;;;;;6244573;23;20259;-78
2022/09/19 03:18:55;;;;;;;;;;;;;;;;;;6244003;23;19977;-80
2022/09/19 03:21:21;;;;;;;;;;;;;;;;;;6242985;23;19993;-78
2022/09/19 03:23:47;;;;;;;;;;;;;;;;;;6247033;23;19911;-79
2022/09/19 03:26:20;;;;;;;;;;;;;;;;;;6242577;23;19930;-78
2022/09/19 03:28:48;;;;;;;;;;;;;;;;;;6217509;23;20291;-78
2022/09/19 03:31:13;;;;;;;;;;;;;;;;;;6242868;23;19915;-78
2022/09/19 03:33:39;;;;;;;;;;;;;;;;;;6241744;23;19912;-78
2022/09/19 03:36:11;;;;;;;;;;;;;;;;;;6241252;23;19912;-80
2022/09/19 03:38:42;;;;;;;;;;;;;;;;;;6242757;23;19912;-79
2022/09/19 03:41:09;;;;;;;;;;;;;;;;;;6215886;23;20335;-79
2022/09/19 03:43:35;;;;;;;;;;;;;;;;;;6241247;23;19919;-78
2022/09/19 03:46:02;;;;;;;;;;;;;;;;;;6241490;23;19971;-79
2022/09/19 03:48:28;;;;;;;;;;;;;;;;;;6241207;23;19987;-77
2022/09/19 03:50:54;;;;;;;;;;;;;;;;;;6216567;23;19911;-77
2022/09/19 03:53:20;;;;;;;;;;;;;;;;;;6241491;23;20402;-78
2022/09/19 03:55:46;;;;;;;;;;;;;;;;;;6241718;23;19946;-77
2022/09/19 03:58:14;;;;;;;;;;;;;;;;;;6241447;23;19994;-78
2022/09/19 04:00:40;;;;;;;;;;;;;;;;;;6215937;23;19911;-77
2022/09/19 04:03:08;;;;;;;;;;;;;;;;;;6215870;23;20253;-77
2022/09/19 04:05:33;;;;;;;;;;;;;;;;;;6241871;23;19987;-78
2022/09/19 04:08:00;;;;;;;;;;;;;;;;;;6241390;23;19915;-76
2022/09/19 04:10:26;;;;;;;;;;;;;;;;;;6241374;22;20398;-80
2022/09/19 04:12:52;;;;;;;;;;;;;;;;;;6216234;23;19989;-80
2022/09/19 04:15:17;;;;;;;;;;;;;;;;;;6241005;23;19922;-79
2022/09/19 04:17:43;;;;;;;;;;;;;;;;;;6241718;23;20272;-79
2022/09/19 04:20:15;;;;;;;;;;;;;;;;;;6238989;23;19911;-80
2022/09/19 04:23:03;;;;;;;;;;;;;;;;;;6215673;23;20268;-79
2022/09/19 04:25:51;;;;;;;;;;;;;;;;;;6230460;23;19919;-79
2022/09/19 04:28:31;;;;;;;;;;;;;;;;;;6239018;23;20268;-79
2022/09/19 04:30:59;;;;;;;;;;;;;;;;;;6215122;23;19918;-78
2022/09/19 04:33:26;;;;;;;;;;;;;;;;;;6240996;23;19911;-80
2022/09/19 04:35:57;;;;;;;;;;;;;;;;;;6215895;23;19946;-79
2022/09/19 04:38:23;;;;;;;;;;;;;;;;;;6241732;23;19923;-80
2022/09/19 04:40:56;;;;;;;;;;;;;;;;;;6240811;23;19934;-80
2022/09/19 04:43:24;;;;;;;;;;;;;;;;;;6252378;23;19912;-80
2022/09/19 04:46:21;;;;;;;;;;;;;;;;;;6203162;23;19927;-80
2022/09/19 04:48:49;;;;;;;;;;;;;;;;;;6244629;23;19911;-79
2022/09/19 04:51:16;;;;;;;;;;;;;;;;;;6240544;23;19912;-79
2022/09/19 04:53:41;;;;;;;;;;;;;;;;;;6240506;23;19919;-80
2022/09/19 04:56:08;;;;;;;;;;;;;;;;;;6239126;23;20360;-79
2022/09/19 04:58:37;;;;;;;;;;;;;;;;;;6239177;23;19911;-81
2022/09/19 05:01:04;;;;;;;;;;;;;;;;;;6239632;23;19911;-80
2022/09/19 05:03:30;;;;;;;;;;;;;;;;;;6239243;23;20018;-82
2022/09/19 05:05:59;;;;;;;;;;;;;;;;;;6241404;23;19919;-82
2022/09/19 05:08:33;;;;;;;;;;;;;;;;;;6191754;23;20327;-82
2022/09/19 05:11:05;;;;;;;;;;;;;;;;;;6242886;23;19919;-81
2022/09/19 05:13:31;;;;;;;;;;;;;;;;;;6252600;22;19919;-82
2022/09/19 05:15:57;;;;;;;;;;;;;;;;;;6229008;23;19981;-83
2022/09/19 05:18:22;;;;;;;;;;;;;;;;;;6249213;23;19926;-81
2022/09/19 05:20:52;;;;;;;;;;;;;;;;;;6260713;23;19938;-80
2022/09/19 05:23:18;;;;;;;;;;;;;;;;;;6244083;23;19923;-81
2022/09/19 05:25:43;;;;;;;;;;;;;;;;;;6241719;23;20276;-81
2022/09/19 05:28:10;;;;;;;;;;;;;;;;;;6240540;23;19919;-82
2022/09/19 05:30:36;;;;;;;;;;;;;;;;;;6242365;23;19912;-79
2022/09/19 05:33:02;;;;;;;;;;;;;;;;;;6243274;23;20003;-80
2022/09/19 05:35:35;;;;;;;;;;;;;;;;;;6214518;23;19911;-80
2022/09/19 05:38:17;;;;;;;;;;;;;;;;;;6242159;23;19911;-80
2022/09/19 05:41:01;;;;;;;;;;;;;;;;;;6239830;23;19911;-77
2022/09/19 05:43:47;;;;;;;;;;;;;;;;;;6230087;23;20407;-79
2022/09/19 05:46:13;;;;;;;;;;;;;;;;;;6214141;23;19962;-76
2022/09/19 05:48:41;;;;;;;;;;;;;;;;;;6245038;23;20326;-83
2022/09/19 05:51:07;;;;;;;;;;;;;;;;;;6243029;23;19919;-76
2022/09/19 05:56:27;;;;;;;;;;;;;;;;;;6213735;23;19915;-81
2022/09/19 05:58:59;;;;;;;;;;;;;;;;;;6214702;23;20248;-80
2022/09/19 06:01:25;;;;;;;;;;;;;;;;;;6212472;23;19915;-81
2022/09/19 06:03:51;;;;;;;;;;;;;;;;;;6237191;23;19938;-80
2022/09/19 06:06:20;;;;;;;;;;;;;;;;;;6237243;23;20213;-80
2022/09/19 06:08:47;;;;;;;;;;;;;;;;;;6239037;22;19933;-80
2022/09/19 06:11:14;;;;;;;;;;;;;;;;;;6212017;23;19911;-80
2022/09/19 06:16:24;;;;;;;;;;;;;;;;;;6213531;23;19911;-81
2022/09/19 06:19:10;;;;;;;;;;;;;;;;;;6241370;23;20371;-80
2022/09/19 06:21:36;;;;;;;;;;;;;;;;;;6241008;23;19911;-81
2022/09/19 06:24:01;;;;;;;;;;;;;;;;;;6243874;23;19911;-81
2022/09/19 06:26:27;;;;;;;;;;;;;;;;;;6241114;23;20251;-81
2022/09/19 06:28:53;;;;;;;;;;;;;;;;;;6241806;23;19935;-80
2022/09/19 06:31:18;;;;;;;;;;;;;;;;;;6241322;23;20272;-80
2022/09/19 06:33:54;;;;;;;;;;;;;;;;;;6239655;23;19912;-80
2022/09/19 06:36:23;;;;;;;;;;;;;;;;;;6239814;23;19912;-79
2022/09/19 06:38:50;;;;;;;;;;;;;;;;;;6239077;23;20345;-77
2022/09/19 06:41:35;;;;;;;;;;;;;;;;;;6245293;23;20347;-82
2022/09/19 06:44:39;;;;;;;;;;;;;;;;;;6150200;23;20028;-82
2022/09/19 06:47:31;;;;;;;;;;;;;;;;;;6124665;23;19913;-82
2022/09/19 06:50:22;;;;;;;;;;;;;;;;;;6177331;23;19919;-84
2022/09/19 06:53:05;;;;;;;;;;;;;;;;;;6241263;23;19918;-77
2022/09/19 06:55:30;;;;;;;;;;;;;;;;;;6242537;23;19911;-79
2022/09/19 06:57:59;;;;;;;;;;;;;;;;;;6241087;23;20295;-76
2022/09/19 07:00:25;;;;;;;;;;;;;;;;;;6241187;23;19943;-78
2022/09/19 07:02:50;;;;;;;;;;;;;;;;;;6216105;23;19912;-82
2022/09/19 07:05:17;;;;;;;;;;;;;;;;;;6241696;23;19975;-80
2022/09/19 07:07:51;;;;;;;;;;;;;;;;;;6243821;23;19918;-79
2022/09/19 07:10:17;;;;;;;;;;;;;;;;;;6248091;22;19916;-80
2022/09/19 07:12:42;;;;;;;;;;;;;;;;;;6223979;23;19967;-83
2022/09/19 07:15:08;;;;;;;;;;;;;;;;;;6256334;22;19916;-81
2022/09/19 07:17:33;;;;;;;;;;;;;;;;;;6255851;23;19915;-80
2022/09/19 07:20:00;;;;;;;;;;;;;;;;;;6248661;23;19911;-82
2022/09/19 07:22:53;;;;;;;;;;;;;;;;;;6248607;23;20421;-81
2022/09/19 07:25:28;;;;;;;;;;;;;;;;;;6222254;23;20364;-81
2022/09/19 07:27:59;;;;;;;;;;;;;;;;;;6246763;23;20364;-79
2022/09/19 07:30:24;;;;;;;;;;;;;;;;;;6242003;23;19911;-79
2022/09/19 07:32:50;;;;;;;;;;;;;;;;;;6215415;23;19912;-80
2022/09/19 07:35:16;;;;;;;;;;;;;;;;;;6252893;23;19973;-81
2022/09/19 07:37:42;;;;;;;;;;;;;;;;;;6242390;23;19943;-80
2022/09/19 07:40:33;;;;;;;;;;;;;;;;;;6236391;23;20078;-83
2022/09/19 07:43:02;;;;;;;;;;;;;;;;;;6195730;23;19958;-82
2022/09/19 07:45:45;;;;;;;;;;;;;;;;;;6192561;23;19966;-81
2022/09/19 07:48:31;;;;;;;;;;;;;;;;;;6244795;23;19912;-81
2022/09/19 07:51:15;;;;;;;;;;;;;;;;;;6244576;23;19912;-83
2022/09/19 07:53:41;;;;;;;;;;;;;;;;;;6247296;23;20038;-83
2022/09/19 07:56:06;;;;;;;;;;;;;;;;;;6218345;23;20273;-81
2022/09/19 07:58:32;;;;;;;;;;;;;;;;;;6249537;23;19916;-82
2022/09/19 08:01:01;;;;;;;;;;;;;;;;;;6243596;23;20320;-78
2022/09/19 08:03:46;;;;;;;;;;;;;;;;;;6242146;23;19911;-79
2022/09/19 08:06:13;;;;;;;;;;;;;;;;;;6215896;23;20272;-77
2022/09/19 08:08:40;;;;;;;;;;;;;;;;;;6240448;22;20294;-79
2022/09/19 08:11:16;;;;;;;;;;;;;;;;;;6241912;23;19911;-77
2022/09/19 08:13:42;;;;;;;;;;;;;;;;;;6216036;23;19923;-79
2022/09/19 08:16:08;;;;;;;;;;;;;;;;;;6242005;23;19912;-79
2022/09/19 08:18:34;;;;;;;;;;;;;;;;;;6240104;23;19911;-77
2022/09/19 08:21:00;;;;;;;;;;;;;;;;;;6239877;23;20321;-83
2022/09/19 08:23:26;;;;;;;;;;;;;;;;;;6240300;23;19935;-81
2022/09/19 08:25:55;;;;;;;;;;;;;;;;;;6248728;23;19920;-80
2022/09/19 08:28:22;;;;;;;;;;;;;;;;;;6250822;23;20077;-80
2022/09/19 08:30:50;;;;;;;;;;;;;;;;;;6250246;23;19923;-82
2022/09/19 08:33:18;;;;;;;;;;;;;;;;;;6240760;23;19911;-81
2022/09/19 08:35:44;;;;;;;;;;;;;;;;;;6214641;23;19912;-81
2022/09/19 08:38:21;;;;;;;;;;;;;;;;;;6239987;23;19927;-81
2022/09/19 08:40:46;;;;;;;;;;;;;;;;;;6241961;23;19915;-80
2022/09/19 08:43:12;;;;;;;;;;;;;;;;;;6240883;23;20005;-81
2022/09/19 08:45:44;;;;;;;;;;;;;;;;;;6238171;23;19927;-81
2022/09/19 08:48:11;;;;;;;;;;;;;;;;;;6212739;23;19990;-79
2022/09/19 08:50:36;;;;;;;;;;;;;;;;;;6238154;23;20356;-81
2022/09/19 08:53:07;;;;;;;;;;;;;;;;;;6238695;23;19911;-81
2022/09/19 08:55:33;;;;;;;;;;;;;;;;;;6237877;23;20470;-82
2022/09/19 08:58:00;;;;;;;;;;;;;;;;;;6241219;23;19919;-80
2022/09/19 09:00:38;;;;;;;;;;;;;;;;;;6239397;23;19965;-81
2022/09/19 09:03:03;;;;;;;;;;;;;;;;;;6239405;23;20252;-78
2022/09/19 09:05:36;;;;;;;;;;;;;;;;;;6241223;23;19924;-80
2022/09/19 09:08:02;;;;;;;;;;;;;;;;;;6214504;23;20303;-79
2022/09/19 09:10:50;;;;;;;;;;;;;;;;;;6226900;23;20018;-74
2022/09/19 09:13:17;;;;;;;;;;;;;;;;;;6250398;23;19926;-77
2022/09/19 09:15:44;;;;;;;;;;;;;;;;;;6239835;23;19994;-77
2022/09/19 09:18:11;;;;;;;;;;;;;;;;;;6241053;23;19974;-77
2022/09/19 09:20:39;;;;;;;;;;;;;;;;;;6239724;23;20352;-77
2022/09/19 09:23:05;;;;;;;;;;;;;;;;;;6239687;23;19990;-79
2022/09/19 09:25:41;;;;;;;;;;;;;;;;;;6239569;23;19946;-77
2022/09/19 09:28:07;;;;;;;;;;;;;;;;;;6239120;23;19911;-77
2022/09/19 09:30:53;;;;;;;;;;;;;;;;;;6224654;23;19915;-76
2022/09/19 09:33:21;;;;;;;;;;;;;;;;;;6239076;23;19912;-78
2022/09/19 09:35:47;;;;;;;;;;;;;;;;;;6214013;23;19919;-78
2022/09/19 09:38:13;;;;;;;;;;;;;;;;;;6239419;23;19942;-79
2022/09/19 09:43:23;;;;;;;;;;;;;;;;;;6240836;23;20304;-77
2022/09/19 09:45:53;;;;;;;;;;;;;;;;;;6242509;23;19974;-82
2022/09/19 09:48:26;;;;;;;;;;;;;;;;;;6241423;23;20318;-77
2022/09/19 09:50:52;;;;;;;;;;;;;;;;;;6239377;23;19916;-75
2022/09/19 09:53:18;;;;;;;;;;;;;;;;;;6240865;23;19962;-75
2022/09/19 09:58:29;;;;;;;;;;;;;;;;;;6213019;23;19934;-75
2022/09/19 10:03:43;;;;;;;;;;;;;;;;;;6240147;23;19915;-76
2022/09/19 10:06:17;;;;;;;;;;;;;;;;;;6215604;23;19920;-76
2022/09/19 10:08:43;;;;;;;;;;;;;;;;;;6238542;22;19957;-77
2022/09/19 10:11:16;;;;;;;;;;;;;;;;;;6240627;23;19947;-76
2022/09/19 10:13:45;;;;;;;;;;;;;;;;;;6240070;23;19930;-77
2022/09/19 10:16:14;;;;;;;;;;;;;;;;;;6212509;23;19923;-87
2022/09/19 10:18:41;;;;;;;;;;;;;;;;;;6236978;23;19920;-77
2022/09/19 10:23:53;;;;;;;;;;;;;;;;;;6239313;23;20278;-77
2022/09/19 10:26:23;;;;;;;;;;;;;;;;;;6190152;23;20287;-77
2022/09/19 10:28:56;;;;;;;;;;;;;;;;;;6244468;22;19911;-77
2022/09/19 10:31:45;;;;;;;;;;;;;;;;;;6263767;22;20001;-74
2022/09/19 10:34:35;;;;;;;;;;;;;;;;;;6274295;22;19912;-79
2022/09/19 10:37:08;;;;;;;;;;;;;;;;;;6258842;22;19985;-77
2022/09/19 10:39:35;;;;;;;;;;;;;;;;;;6247482;22;19918;-80
2022/09/19 10:42:00;;;;;;;;;;;;;;;;;;6244256;22;19970;-78
2022/09/19 10:44:27;;;;;;;;;;;;;;;;;;6244274;22;19925;-78
2022/09/19 10:46:54;;;;;;;;;;;;;;;;;;6219353;22;19919;-79
2022/09/19 10:49:36;;;;;;;;;;;;;;;;;;6244202;22;20378;-76
2022/09/19 10:52:04;;;;;;;;;;;;;;;;;;6244025;22;19990;-79
2022/09/19 10:54:31;;;;;;;;;;;;;;;;;;6244268;22;19962;-80
2022/09/19 10:56:58;;;;;;;;;;;;;;;;;;6243719;22;19918;-79
2022/09/19 10:59:24;;;;;;;;;;;;;;;;;;6244035;22;19918;-80
2022/09/19 11:02:07;;;;;;;;;;;;;;;;;;6244217;22;20096;-77
2022/09/19 11:04:33;;;;;;;;;;;;;;;;;;6243597;22;20288;-79
2022/09/19 11:06:58;;;;;;;;;;;;;;;;;;6244696;22;19934;-79
2022/09/19 11:09:25;;;;;;;;;;;;;;;;;;6248798;22;19919;-77
2022/09/19 11:11:50;;;;;;;;;;;;;;;;;;6224663;22;19916;-78
2022/09/19 11:14:32;;;;;;;;;;;;;;;;;;6249200;22;20070;-80
2022/09/19 11:17:03;;;;;;;;;;;;;;;;;;6246876;22;19965;-77
2022/09/19 11:19:30;;;;;;;;;;;;;;;;;;6246875;22;19942;-81
2022/09/19 11:21:56;;;;;;;;;;;;;;;;;;6239921;23;20268;-80
2022/09/19 11:24:21;;;;;;;;;;;;;;;;;;6246024;22;19954;-77
2022/09/19 11:26:47;;;;;;;;;;;;;;;;;;6274186;22;19946;-78
2022/09/19 11:29:13;;;;;;;;;;;;;;;;;;6255735;22;19954;-78
2022/09/19 11:31:41;;;;;;;;;;;;;;;;;;6244053;22;19918;-75
2022/09/19 11:34:11;;;;;;;;;;;;;;;;;;6245006;22;19911;-76
2022/09/19 11:36:49;;;;;;;;;;;;;;;;;;6245498;22;19934;-78
2022/09/19 11:39:15;;;;;;;;;;;;;;;;;;6246570;22;19950;-78
2022/09/19 11:41:42;;;;;;;;;;;;;;;;;;6246476;22;19911;-77
2022/09/19 11:44:08;;;;;;;;;;;;;;;;;;6245965;22;19911;-78
2022/09/19 11:46:33;;;;;;;;;;;;;;;;;;6246721;22;19907;-80
2022/09/19 11:49:04;;;;;;;;;;;;;;;;;;6245905;22;19911;-78
2022/09/19 11:51:29;;;;;;;;;;;;;;;;;;6245746;22;19935;-80
2022/09/19 11:53:57;;;;;;;;;;;;;;;;;;6245515;22;19911;-80
2022/09/19 11:56:35;;;;;;;;;;;;;;;;;;6246014;22;19911;-81
2022/09/19 11:59:01;;;;;;;;;;;;;;;;;;6246844;22;19990;-80
2022/09/19 12:01:27;;;;;;;;;;;;;;;;;;6247024;22;20240;-77
2022/09/19 12:03:54;;;;;;;;;;;;;;;;;;6245702;22;19911;-79
2022/09/19 12:06:25;;;;;;;;;;;;;;;;;;6248851;22;20370;-79
2022/09/19 12:08:50;;;;;;;;;;;;;;;;;;6250836;22;19911;-79
2022/09/19 12:11:17;;;;;;;;;;;;;;;;;;6255517;22;19911;-80
2022/09/19 12:13:44;;;;;;;;;;;;;;;;;;6253959;22;19911;-80
2022/09/19 12:16:10;;;;;;;;;;;;;;;;;;6265789;22;20339;-80
2022/09/19 12:18:38;;;;;;;;;;;;;;;;;;6253609;22;19937;-79
2022/09/19 12:21:05;;;;;;;;;;;;;;;;;;6251634;22;19923;-80
2022/09/19 12:26:22;;;;;;;;;;;;;;;;;;6258872;22;19919;-77
2022/09/19 12:28:50;;;;;;;;;;;;;;;;;;6279133;22;19998;-78
2022/09/19 12:31:16;;;;;;;;;;;;;;;;;;6249970;22;19938;-77
2022/09/19 12:33:46;;;;;;;;;;;;;;;;;;6252697;22;19915;-76
2022/09/19 12:36:12;;;;;;;;;;;;;;;;;;6257735;22;19911;-77
2022/09/19 12:38:39;;;;;;;;;;;;;;;;;;6253593;22;19912;-78
2022/09/19 12:41:08;;;;;;;;;;;;;;;;;;6245379;22;19912;-77
2022/09/19 12:43:36;;;;;;;;;;;;;;;;;;6271287;22;20409;-78
2022/09/19 12:46:05;;;;;;;;;;;;;;;;;;6245557;22;19919;-76
2022/09/19 12:48:31;;;;;;;;;;;;;;;;;;6245599;22;20413;-77
2022/09/19 12:51:16;;;;;;;;;;;;;;;;;;6272269;22;20236;-77
2022/09/19 12:53:42;;;;;;;;;;;;;;;;;;6272024;22;20244;-78
2022/09/19 12:56:13;;;;;;;;;;;;;;;;;;6244966;22;19911;-79
2022/09/19 12:58:42;;;;;;;;;;;;;;;;;;6246256;22;19919;-79
2022/09/19 13:01:12;;;;;;;;;;;;;;;;;;6273058;22;19917;-78
2022/09/19 13:03:38;;;;;;;;;;;;;;;;;;6276924;22;19937;-79
2022/09/19 13:06:05;;;;;;;;;;;;;;;;;;6273362;22;19919;-78
2022/09/19 13:08:31;;;;;;;;;;;;;;;;;;6274852;22;20015;-78
2022/09/19 13:10:57;;;;;;;;;;;;;;;;;;6272812;22;19919;-82
2022/09/19 13:13:22;;;;;;;;;;;;;;;;;;6275991;22;19933;-79
2022/09/19 13:15:48;;;;;;;;;;;;;;;;;;6273774;22;19919;-81
2022/09/19 13:23:42;;;;;;;;;;;;;;;;;;6273728;22;19911;-79
2022/09/19 13:26:09;;;;;;;;;;;;;;;;;;6275938;22;19930;-79
2022/09/19 13:28:34;;;;;;;;;;;;;;;;;;6278623;22;19907;-81
2022/09/19 13:31:00;;;;;;;;;;;;;;;;;;6288831;22;19902;-83
2022/09/19 13:33:27;;;;;;;;;;;;;;;;;;6288158;22;20254;-84
2022/09/19 13:35:53;;;;;;;;;;;;;;;;;;6289396;22;19911;-83
2022/09/19 13:38:19;;;;;;;;;;;;;;;;;;6272821;22;19953;-76
2022/09/19 13:40:44;;;;;;;;;;;;;;;;;;6272617;22;19919;-82
2022/09/19 13:43:10;;;;;;;;;;;;;;;;;;6286185;22;19911;-83
2022/09/19 13:45:35;;;;;;;;;;;;;;;;;;6259318;22;19915;-82
2022/09/19 13:48:02;;;;;;;;;;;;;;;;;;6263516;22;19921;-83
2022/09/19 13:50:32;;;;;;;;;;;;;;;;;;6286405;22;19911;-83
2022/09/19 13:53:01;;;;;;;;;;;;;;;;;;6280956;22;19911;-82
2022/09/19 13:55:27;;;;;;;;;;;;;;;;;;6289386;22;19918;-81
2022/09/19 13:57:53;;;;;;;;;;;;;;;;;;6292625;22;19911;-83
2022/09/19 14:00:18;;;;;;;;;;;;;;;;;;6257719;22;19941;-81
2022/09/19 14:02:44;;;;;;;;;;;;;;;;;;6282478;22;19956;-81
2022/09/19 14:05:10;;;;;;;;;;;;;;;;;;6282600;22;19919;-78
2022/09/19 14:07:37;;;;;;;;;;;;;;;;;;6271867;22;20406;-77
2022/09/19 14:10:05;;;;;;;;;;;;;;;;;;6281116;22;19918;-77
2022/09/19 14:12:31;;;;;;;;;;;;;;;;;;6282484;22;19911;-78
2022/09/19 14:14:56;;;;;;;;;;;;;;;;;;6271946;22;19997;-77
2022/09/19 14:17:22;;;;;;;;;;;;;;;;;;6272865;22;19918;-78
2022/09/19 14:19:53;;;;;;;;;;;;;;;;;;6272621;22;19915;-77
2022/09/19 14:22:19;;;;;;;;;;;;;;;;;;6271494;22;19923;-77
2022/09/19 14:24:45;;;;;;;;;;;;;;;;;;6272204;22;19926;-76
2022/09/19 14:27:11;;;;;;;;;;;;;;;;;;6273245;22;19958;-78
2022/09/19 14:29:36;;;;;;;;;;;;;;;;;;6273737;22;19965;-78
2022/09/19 14:32:02;;;;;;;;;;;;;;;;;;6275045;22;19922;-79
2022/09/19 14:34:32;;;;;;;;;;;;;;;;;;6285914;22;19907;-80
2022/09/19 14:36:58;;;;;;;;;;;;;;;;;;6253497;22;19911;-80
2022/09/19 14:39:24;;;;;;;;;;;;;;;;;;6278683;22;19918;-78
2022/09/19 14:41:50;;;;;;;;;;;;;;;;;;6276336;22;19911;-79
2022/09/19 14:44:16;;;;;;;;;;;;;;;;;;6253109;22;19911;-81
2022/09/19 14:46:42;;;;;;;;;;;;;;;;;;6228637;22;19911;-83
2022/09/19 14:49:07;;;;;;;;;;;;;;;;;;6257439;22;19921;-84
2022/09/19 14:51:33;;;;;;;;;;;;;;;;;;6286300;22;19911;-82
2022/09/19 14:54:00;;;;;;;;;;;;;;;;;;6298270;22;19923;-84
2022/09/19 14:56:25;;;;;;;;;;;;;;;;;;6296457;22;19962;-82
2022/09/19 14:58:51;;;;;;;;;;;;;;;;;;6266282;22;19911;-84
2022/09/19 15:01:17;;;;;;;;;;;;;;;;;;6289765;22;19955;-83
2022/09/19 15:03:44;;;;;;;;;;;;;;;;;;6259598;22;19942;-84
2022/09/19 15:06:10;;;;;;;;;;;;;;;;;;6263085;22;20314;-85
2022/09/19 15:08:35;;;;;;;;;;;;;;;;;;6299538;22;19907;-83
2022/09/19 15:11:01;;;;;;;;;;;;;;;;;;6287444;22;20098;-86
2022/09/19 15:13:27;;;;;;;;;;;;;;;;;;6296047;22;19965;-86
2022/09/19 15:15:54;;;;;;;;;;;;;;;;;;6249145;22;19915;-83
2022/09/19 15:18:19;;;;;;;;;;;;;;;;;;6269125;22;19918;-84
2022/09/19 15:20:45;;;;;;;;;;;;;;;;;;6288825;22;19915;-83
2022/09/19 15:23:10;;;;;;;;;;;;;;;;;;6268854;22;19911;-84
2022/09/19 15:25:36;;;;;;;;;;;;;;;;;;6282281;22;19919;-84
2022/09/19 15:30:31;;;;;;;;;;;;;;;;;;6216731;22;20010;-76
2022/09/19 15:32:57;;;;;;;;;;;;;;;;;;6185718;23;19919;-76
2022/09/19 15:35:23;;;;;;;;;;;;;;;;;;6212285;23;19916;-76
2022/09/19 15:37:48;;;;;;;;;;;;;;;;;;6211602;23;19916;-76
2022/09/19 15:40:14;;;;;;;;;;;;;;;;;;6209536;23;19923;-77
2022/09/19 15:42:39;;;;;;;;;;;;;;;;;;6211750;23;19970;-76
2022/09/19 15:45:05;;;;;;;;;;;;;;;;;;6185089;23;19942;-75
2022/09/19 15:47:30;;;;;;;;;;;;;;;;;;6186756;23;20371;-81
2022/09/19 15:49:56;;;;;;;;;;;;;;;;;;6214933;23;19911;-80
2022/09/19 15:52:22;;;;;;;;;;;;;;;;;;6217117;23;19912;-82
2022/09/19 15:54:47;;;;;;;;;;;;;;;;;;6170776;23;19916;-78
2022/09/19 15:57:13;;;;;;;;;;;;;;;;;;6216687;23;19948;-81
2022/09/19 15:59:39;;;;;;;;;;;;;;;;;;6213617;23;19912;-82
2022/09/19 16:02:08;;;;;;;;;;;;;;;;;;6207066;23;19978;-82
2022/09/19 16:04:33;;;;;;;;;;;;;;;;;;6219247;23;20269;-82
2022/09/19 16:09:43;;;;;;;;;;;;;;;;;;6229761;23;19911;-81
2022/09/19 16:12:09;;;;;;;;;;;;;;;;;;6236297;23;19968;-83
2022/09/19 16:14:34;;;;;;;;;;;;;;;;;;6192415;23;19951;-84
2022/09/19 16:17:01;;;;;;;;;;;;;;;;;;6178985;23;19911;-85
2022/09/19 16:19:26;;;;;;;;;;;;;;;;;;6221833;23;19919;-84
2022/09/19 16:21:52;;;;;;;;;;;;;;;;;;6218381;23;19911;-82
2022/09/19 16:24:17;;;;;;;;;;;;;;;;;;6232789;23;20003;-84
2022/09/19 16:26:44;;;;;;;;;;;;;;;;;;6202556;23;19912;-82
2022/09/19 16:29:09;;;;;;;;;;;;;;;;;;6204283;23;19924;-84
2022/09/19 16:31:35;;;;;;;;;;;;;;;;;;6235430;23;20230;-84
2022/09/19 16:34:01;;;;;;;;;;;;;;;;;;6214669;23;19951;-83
2022/09/19 16:36:27;;;;;;;;;;;;;;;;;;6225233;23;19948;-83
2022/09/19 16:38:53;;;;;;;;;;;;;;;;;;6217740;23;19919;-82
2022/09/19 16:41:18;;;;;;;;;;;;;;;;;;6223762;23;19916;-82
2022/09/19 16:43:45;;;;;;;;;;;;;;;;;;6220296;23;19939;-84
2022/09/19 16:46:11;;;;;;;;;;;;;;;;;;6219588;23;19920;-81
2022/09/19 16:48:36;;;;;;;;;;;;;;;;;;6231574;23;19892;-87
2022/09/19 16:51:04;;;;;;;;;;;;;;;;;;6252760;22;19947;-82
2022/09/19 16:53:30;;;;;;;;;;;;;;;;;;6228107;23;19962;-80
2022/09/19 17:10:00;;;;;;;;;;;;;;;;;;6219057;22;19930;-90
2022/09/19 17:12:26;;;;;;;;;;;;;;;;;;6168721;22;19923;-89
2022/09/19 17:17:34;;;;;;;;;;;;;;;;;;6218425;22;19924;-77
2022/09/19 17:19:59;;;;;;;;;;;;;;;;;;6191766;23;19919;-80
2022/09/19 17:22:29;;;;;;;;;;;;;;;;;;6206033;23;20354;-79
2022/09/19 17:24:54;;;;;;;;;;;;;;;;;;6181465;23;20015;-80
2022/09/19 17:27:20;;;;;;;;;;;;;;;;;;6187258;23;19911;-78
2022/09/19 17:29:45;;;;;;;;;;;;;;;;;;6211301;23;19969;-76
2022/09/19 17:32:11;;;;;;;;;;;;;;;;;;6188520;23;19912;-77
2022/09/19 17:34:37;;;;;;;;;;;;;;;;;;6208681;23;19923;-77
2022/09/19 17:37:02;;;;;;;;;;;;;;;;;;6209332;23;19911;-76
2022/09/19 17:39:29;;;;;;;;;;;;;;;;;;6210368;23;19912;-78
2022/09/19 17:41:54;;;;;;;;;;;;;;;;;;6183292;23;19916;-78